sensor_id;sensor_type;location;lat;lon;timestamp;pressure;altitude;pressure_sealevel;temperature;humidity
37291;BME280;23175;-33.706;151.094;2023-01-16T00:01:39;100447.02;;;25.19;35.98
37291;BME280;23175;-33.706;151.094;2023-01-16T00:04:08;100451.47;;;23.36;37.62
37291;BME280;23175;-33.706;151.094;2023-01-16T00:06:37;100450.34;;;23.77;37.68
37291;BME280;23175;-33.706;151.094;2023-01-16T00:09:06;100453.24;;;19.75;40.14
37291;BME280;23175;-33.706;151.094;2023-01-16T00:11:36;100447.54;;;25.73;34.34
37291;BME280;23175;-33.706;151.094;2023-01-16T00:14:05;100441.49;;;25.91;33.80
37291;BME280;23175;-33.706;151.094;2023-01-16T00:16:34;100442.93;;;26.41;35.02
37291;BME280;23175;-33.706;151.094;2023-01-16T00:19:03;100437.63;;;25.66;35.08
37291;BME280;23175;-33.706;151.094;2023-01-16T00:21:33;100438.36;;;24.29;34.67
37291;BME280;23175;-33.706;151.094;2023-01-16T00:24:02;100434.01;;;23.83;34.86
37291;BME280;23175;-33.706;151.094;2023-01-16T00:26:32;100433.25;;;24.26;34.46
37291;BME280;23175;-33.706;151.094;2023-01-16T00:29:01;100431.35;;;24.08;34.89
37291;BME280;23175;-33.706;151.094;2023-01-16T00:31:30;100436.43;;;22.19;37.11
37291;BME280;23175;-33.706;151.094;2023-01-16T00:34:04;100436.47;;;23.49;35.20
37291;BME280;23175;-33.706;151.094;2023-01-16T00:36:34;100436.09;;;23.71;36.38
37291;BME280;23175;-33.706;151.094;2023-01-16T00:39:03;100433.87;;;22.41;38.29
37291;BME280;23175;-33.706;151.094;2023-01-16T00:41:32;100436.68;;;22.21;38.35
37291;BME280;23175;-33.706;151.094;2023-01-16T00:44:02;100433.67;;;22.30;37.73
37291;BME280;23175;-33.706;151.094;2023-01-16T00:46:32;100438.35;;;21.51;38.29
37291;BME280;23175;-33.706;151.094;2023-01-16T00:49:01;100435.61;;;23.53;36.18
37291;BME280;23175;-33.706;151.094;2023-01-16T00:51:30;100433.95;;;25.85;34.12
37291;BME280;23175;-33.706;151.094;2023-01-16T00:53:59;100431.51;;;24.17;35.54
37291;BME280;23175;-33.706;151.094;2023-01-16T00:56:28;100430.82;;;23.28;38.38
37291;BME280;23175;-33.706;151.094;2023-01-16T00:58:57;100437.24;;;21.33;41.22
37291;BME280;23175;-33.706;151.094;2023-01-16T01:01:26;100430.88;;;23.16;39.93
37291;BME280;23175;-33.706;151.094;2023-01-16T01:04:00;100434.07;;;21.83;39.84
37291;BME280;23175;-33.706;151.094;2023-01-16T01:06:29;100430.25;;;23.04;38.67
37291;BME280;23175;-33.706;151.094;2023-01-16T01:08:58;100430.96;;;24.89;35.50
37291;BME280;23175;-33.706;151.094;2023-01-16T01:11:27;100430.56;;;25.77;34.60
37291;BME280;23175;-33.706;151.094;2023-01-16T01:13:57;100435.43;;;26.00;33.64
37291;BME280;23175;-33.706;151.094;2023-01-16T01:16:32;100435.28;;;23.71;36.11
37291;BME280;23175;-33.706;151.094;2023-01-16T01:19:01;100434.22;;;24.47;36.56
37291;BME280;23175;-33.706;151.094;2023-01-16T01:21:30;100427.40;;;25.84;34.85
37291;BME280;23175;-33.706;151.094;2023-01-16T01:23:59;100428.66;;;22.68;36.94
37291;BME280;23175;-33.706;151.094;2023-01-16T01:26:28;100429.26;;;22.20;38.29
37291;BME280;23175;-33.706;151.094;2023-01-16T01:28:57;100433.98;;;23.16;38.73
37291;BME280;23175;-33.706;151.094;2023-01-16T01:31:26;100429.94;;;24.33;38.77
37291;BME280;23175;-33.706;151.094;2023-01-16T01:34:00;100434.62;;;21.23;41.80
37291;BME280;23175;-33.706;151.094;2023-01-16T01:36:29;100434.98;;;21.01;43.21
37291;BME280;23175;-33.706;151.094;2023-01-16T01:38:58;100430.11;;;22.77;39.15
37291;BME280;23175;-33.706;151.094;2023-01-16T01:41:28;100429.57;;;22.05;39.36
37291;BME280;23175;-33.706;151.094;2023-01-16T01:43:57;100427.02;;;23.53;38.18
37291;BME280;23175;-33.706;151.094;2023-01-16T01:46:30;100427.30;;;25.18;34.93
37291;BME280;23175;-33.706;151.094;2023-01-16T01:49:04;100428.62;;;23.53;37.40
37291;BME280;23175;-33.706;151.094;2023-01-16T01:51:38;100419.89;;;25.57;36.65
37291;BME280;23175;-33.706;151.094;2023-01-16T01:54:10;100427.17;;;22.14;41.89
37291;BME280;23175;-33.706;151.094;2023-01-16T01:56:44;100421.33;;;22.56;41.46
37291;BME280;23175;-33.706;151.094;2023-01-16T01:59:20;100427.81;;;24.02;39.98
37291;BME280;23175;-33.706;151.094;2023-01-16T02:01:55;100425.84;;;23.48;41.09
37291;BME280;23175;-33.706;151.094;2023-01-16T02:04:34;100422.19;;;24.54;39.57
37291;BME280;23175;-33.706;151.094;2023-01-16T02:07:07;100422.06;;;23.05;40.81
37291;BME280;23175;-33.706;151.094;2023-01-16T02:09:38;100418.13;;;22.74;41.28
37291;BME280;23175;-33.706;151.094;2023-01-16T02:12:09;100417.23;;;25.27;39.51
37291;BME280;23175;-33.706;151.094;2023-01-16T02:14:46;100411.68;;;23.65;40.30
37291;BME280;23175;-33.706;151.094;2023-01-16T02:17:19;100409.90;;;23.03;40.60
37291;BME280;23175;-33.706;151.094;2023-01-16T02:19:53;100413.57;;;21.84;42.45
37291;BME280;23175;-33.706;151.094;2023-01-16T02:22:42;100407.43;;;23.19;40.95
37291;BME280;23175;-33.706;151.094;2023-01-16T02:25:35;100408.70;;;23.06;40.84
37291;BME280;23175;-33.706;151.094;2023-01-16T02:31:10;100402.44;;;22.84;40.55
37291;BME280;23175;-33.706;151.094;2023-01-16T02:33:51;100404.10;;;23.69;40.10
37291;BME280;23175;-33.706;151.094;2023-01-16T02:36:32;100405.80;;;23.43;40.60
37291;BME280;23175;-33.706;151.094;2023-01-16T02:39:17;100412.74;;;21.55;43.69
37291;BME280;23175;-33.706;151.094;2023-01-16T02:41:53;100403.83;;;23.47;39.75
37291;BME280;23175;-33.706;151.094;2023-01-16T02:44:32;100396.66;;;23.13;40.15
37291;BME280;23175;-33.706;151.094;2023-01-16T02:47:10;100393.70;;;21.40;42.16
37291;BME280;23175;-33.706;151.094;2023-01-16T02:49:46;100389.94;;;22.94;41.56
37291;BME280;23175;-33.706;151.094;2023-01-16T02:52:23;100393.05;;;24.25;39.12
37291;BME280;23175;-33.706;151.094;2023-01-16T02:55:01;100387.90;;;23.06;40.65
37291;BME280;23175;-33.706;151.094;2023-01-16T02:57:33;100382.36;;;23.02;40.32
37291;BME280;23175;-33.706;151.094;2023-01-16T03:00:06;100372.47;;;22.92;39.29
37291;BME280;23175;-33.706;151.094;2023-01-16T03:02:36;100375.68;;;23.93;39.09
37291;BME280;23175;-33.706;151.094;2023-01-16T03:05:06;100376.50;;;23.95;39.05
37291;BME280;23175;-33.706;151.094;2023-01-16T03:08:44;100373.38;;;23.47;40.16
37291;BME280;23175;-33.706;151.094;2023-01-16T03:11:20;100363.83;;;23.75;37.70
37291;BME280;23175;-33.706;151.094;2023-01-16T03:14:06;100366.02;;;23.15;39.02
37291;BME280;23175;-33.706;151.094;2023-01-16T03:16:51;100364.84;;;23.51;39.07
37291;BME280;23175;-33.706;151.094;2023-01-16T03:19:32;100365.65;;;23.18;39.51
37291;BME280;23175;-33.706;151.094;2023-01-16T03:22:10;100367.84;;;22.09;40.69
37291;BME280;23175;-33.706;151.094;2023-01-16T03:24:53;100360.10;;;24.08;36.99
37291;BME280;23175;-33.706;151.094;2023-01-16T03:27:34;100362.12;;;21.63;40.78
37291;BME280;23175;-33.706;151.094;2023-01-16T03:30:14;100362.00;;;23.76;39.30
37291;BME280;23175;-33.706;151.094;2023-01-16T03:32:46;100361.06;;;22.57;40.21
37291;BME280;23175;-33.706;151.094;2023-01-16T03:35:22;100355.75;;;22.76;39.68
37291;BME280;23175;-33.706;151.094;2023-01-16T03:37:56;100358.55;;;21.74;42.53
37291;BME280;23175;-33.706;151.094;2023-01-16T03:40:35;100355.83;;;22.33;41.42
37291;BME280;23175;-33.706;151.094;2023-01-16T03:43:14;100355.24;;;22.96;39.47
37291;BME280;23175;-33.706;151.094;2023-01-16T03:45:49;100348.59;;;24.44;37.75
37291;BME280;23175;-33.706;151.094;2023-01-16T03:48:24;100347.93;;;23.89;38.79
37291;BME280;23175;-33.706;151.094;2023-01-16T03:51:00;100343.44;;;22.81;39.75
37291;BME280;23175;-33.706;151.094;2023-01-16T03:53:35;100342.45;;;24.92;38.78
37291;BME280;23175;-33.706;151.094;2023-01-16T03:56:15;100348.36;;;23.83;40.12
37291;BME280;23175;-33.706;151.094;2023-01-16T03:58:47;100348.14;;;23.06;40.87
37291;BME280;23175;-33.706;151.094;2023-01-16T04:01:24;100347.07;;;22.89;40.11
37291;BME280;23175;-33.706;151.094;2023-01-16T04:04:02;100339.39;;;23.86;39.22
37291;BME280;23175;-33.706;151.094;2023-01-16T04:06:40;100346.30;;;23.32;40.08
37291;BME280;23175;-33.706;151.094;2023-01-16T04:09:15;100341.68;;;23.90;39.71
37291;BME280;23175;-33.706;151.094;2023-01-16T04:11:48;100340.02;;;22.97;40.88
37291;BME280;23175;-33.706;151.094;2023-01-16T04:14:21;100341.06;;;23.24;41.09
37291;BME280;23175;-33.706;151.094;2023-01-16T04:16:52;100346.72;;;24.39;39.73
37291;BME280;23175;-33.706;151.094;2023-01-16T04:19:22;100344.79;;;23.87;39.20
37291;BME280;23175;-33.706;151.094;2023-01-16T04:21:53;100340.36;;;23.38;40.77
37291;BME280;23175;-33.706;151.094;2023-01-16T04:24:28;100337.41;;;24.18;39.90
37291;BME280;23175;-33.706;151.094;2023-01-16T04:27:02;100341.40;;;24.32;38.70
37291;BME280;23175;-33.706;151.094;2023-01-16T04:29:31;100338.47;;;22.20;40.90
37291;BME280;23175;-33.706;151.094;2023-01-16T04:32:00;100336.23;;;25.49;37.22
37291;BME280;23175;-33.706;151.094;2023-01-16T04:34:29;100332.47;;;21.20;42.03
37291;BME280;23175;-33.706;151.094;2023-01-16T04:36:58;100335.22;;;23.70;39.13
37291;BME280;23175;-33.706;151.094;2023-01-16T04:39:27;100333.47;;;24.32;39.03
37291;BME280;23175;-33.706;151.094;2023-01-16T04:41:56;100335.46;;;21.17;41.31
37291;BME280;23175;-33.706;151.094;2023-01-16T04:44:30;100333.79;;;21.97;42.82
37291;BME280;23175;-33.706;151.094;2023-01-16T04:47:00;100329.02;;;22.23;41.41
37291;BME280;23175;-33.706;151.094;2023-01-16T04:49:29;100321.05;;;23.68;39.50
37291;BME280;23175;-33.706;151.094;2023-01-16T04:51:58;100324.48;;;22.69;40.13
37291;BME280;23175;-33.706;151.094;2023-01-16T04:54:27;100324.60;;;24.16;38.79
37291;BME280;23175;-33.706;151.094;2023-01-16T04:56:56;100321.43;;;21.84;40.89
37291;BME280;23175;-33.706;151.094;2023-01-16T04:59:25;100314.03;;;23.93;39.33
37291;BME280;23175;-33.706;151.094;2023-01-16T05:01:54;100311.31;;;23.84;38.32
37291;BME280;23175;-33.706;151.094;2023-01-16T05:04:23;100313.73;;;21.65;41.70
37291;BME280;23175;-33.706;151.094;2023-01-16T05:06:52;100299.24;;;22.48;41.17
37291;BME280;23175;-33.706;151.094;2023-01-16T05:09:21;100309.25;;;21.87;41.78
37291;BME280;23175;-33.706;151.094;2023-01-16T05:11:51;100303.61;;;22.55;41.16
37291;BME280;23175;-33.706;151.094;2023-01-16T05:14:20;100298.54;;;23.21;40.22
37291;BME280;23175;-33.706;151.094;2023-01-16T05:16:50;100300.62;;;23.58;39.39
37291;BME280;23175;-33.706;151.094;2023-01-16T05:19:20;100305.63;;;23.06;39.70
37291;BME280;23175;-33.706;151.094;2023-01-16T05:21:54;100302.84;;;22.49;40.47
37291;BME280;23175;-33.706;151.094;2023-01-16T05:24:23;100306.21;;;22.31;40.37
37291;BME280;23175;-33.706;151.094;2023-01-16T05:26:53;100302.11;;;24.98;35.04
37291;BME280;23175;-33.706;151.094;2023-01-16T05:29:22;100297.25;;;23.61;36.95
37291;BME280;23175;-33.706;151.094;2023-01-16T05:31:51;100300.82;;;23.12;37.57
37291;BME280;23175;-33.706;151.094;2023-01-16T05:34:20;100292.70;;;23.00;37.14
37291;BME280;23175;-33.706;151.094;2023-01-16T05:36:49;100294.72;;;23.02;38.20
37291;BME280;23175;-33.706;151.094;2023-01-16T05:39:19;100296.28;;;23.36;37.41
37291;BME280;23175;-33.706;151.094;2023-01-16T05:41:48;100297.24;;;22.84;37.95
37291;BME280;23175;-33.706;151.094;2023-01-16T05:44:17;100290.01;;;23.26;38.50
37291;BME280;23175;-33.706;151.094;2023-01-16T05:46:46;100292.18;;;22.43;39.50
37291;BME280;23175;-33.706;151.094;2023-01-16T05:49:15;100287.69;;;23.21;38.90
37291;BME280;23175;-33.706;151.094;2023-01-16T05:51:44;100289.18;;;22.63;40.02
37291;BME280;23175;-33.706;151.094;2023-01-16T05:54:13;100285.74;;;21.85;40.28
37291;BME280;23175;-33.706;151.094;2023-01-16T05:56:42;100282.94;;;23.76;38.06
37291;BME280;23175;-33.706;151.094;2023-01-16T05:59:11;100287.15;;;24.10;37.60
37291;BME280;23175;-33.706;151.094;2023-01-16T06:01:40;100283.57;;;25.40;36.70
37291;BME280;23175;-33.706;151.094;2023-01-16T06:04:14;100286.00;;;23.79;38.34
37291;BME280;23175;-33.706;151.094;2023-01-16T06:06:44;100284.15;;;22.50;39.57
37291;BME280;23175;-33.706;151.094;2023-01-16T06:09:13;100287.54;;;22.03;41.22
37291;BME280;23175;-33.706;151.094;2023-01-16T06:11:42;100288.20;;;23.85;37.57
37291;BME280;23175;-33.706;151.094;2023-01-16T06:14:11;100294.04;;;22.49;38.74
37291;BME280;23175;-33.706;151.094;2023-01-16T06:16:40;100290.66;;;24.32;36.40
37291;BME280;23175;-33.706;151.094;2023-01-16T06:19:09;100293.50;;;22.19;40.36
37291;BME280;23175;-33.706;151.094;2023-01-16T06:21:38;100299.92;;;23.68;39.88
37291;BME280;23175;-33.706;151.094;2023-01-16T06:24:08;100300.09;;;22.48;40.48
37291;BME280;23175;-33.706;151.094;2023-01-16T06:26:37;100299.26;;;22.99;39.48
37291;BME280;23175;-33.706;151.094;2023-01-16T06:29:07;100302.77;;;22.92;40.86
37291;BME280;23175;-33.706;151.094;2023-01-16T06:31:37;100304.24;;;21.19;42.61
37291;BME280;23175;-33.706;151.094;2023-01-16T06:34:06;100300.52;;;23.13;39.87
37291;BME280;23175;-33.706;151.094;2023-01-16T06:36:35;100300.66;;;23.37;40.45
37291;BME280;23175;-33.706;151.094;2023-01-16T06:39:05;100297.16;;;24.45;38.28
37291;BME280;23175;-33.706;151.094;2023-01-16T06:41:33;100301.11;;;23.12;40.80
37291;BME280;23175;-33.706;151.094;2023-01-16T06:44:03;100292.70;;;22.28;41.17
37291;BME280;23175;-33.706;151.094;2023-01-16T06:46:33;100299.06;;;22.61;41.33
37291;BME280;23175;-33.706;151.094;2023-01-16T06:49:02;100296.09;;;23.08;39.50
37291;BME280;23175;-33.706;151.094;2023-01-16T06:51:32;100301.01;;;21.37;42.15
37291;BME280;23175;-33.706;151.094;2023-01-16T06:54:01;100292.35;;;23.16;40.59
37291;BME280;23175;-33.706;151.094;2023-01-16T06:56:31;100289.43;;;23.66;40.51
37291;BME280;23175;-33.706;151.094;2023-01-16T06:59:00;100295.85;;;21.91;44.06
37291;BME280;23175;-33.706;151.094;2023-01-16T07:01:30;100298.88;;;23.13;43.13
37291;BME280;23175;-33.706;151.094;2023-01-16T07:03:59;100301.41;;;21.44;45.42
37291;BME280;23175;-33.706;151.094;2023-01-16T07:06:28;100299.32;;;23.34;41.94
37291;BME280;23175;-33.706;151.094;2023-01-16T07:09:02;100295.11;;;22.07;43.78
37291;BME280;23175;-33.706;151.094;2023-01-16T07:11:31;100292.77;;;22.80;43.05
37291;BME280;23175;-33.706;151.094;2023-01-16T07:14:00;100290.71;;;22.26;43.29
37291;BME280;23175;-33.706;151.094;2023-01-16T07:16:30;100291.55;;;22.12;43.98
37291;BME280;23175;-33.706;151.094;2023-01-16T07:18:59;100283.94;;;22.31;43.64
37291;BME280;23175;-33.706;151.094;2023-01-16T07:21:33;100288.58;;;23.17;42.37
37291;BME280;23175;-33.706;151.094;2023-01-16T07:24:10;100294.90;;;21.51;44.68
37291;BME280;23175;-33.706;151.094;2023-01-16T07:26:43;100295.35;;;23.78;41.62
37291;BME280;23175;-33.706;151.094;2023-01-16T07:29:13;100298.29;;;21.92;44.30
37291;BME280;23175;-33.706;151.094;2023-01-16T07:31:42;100309.56;;;21.73;45.06
37291;BME280;23175;-33.706;151.094;2023-01-16T07:34:11;100308.31;;;23.11;43.25
37291;BME280;23175;-33.706;151.094;2023-01-16T07:36:41;100308.66;;;22.85;43.70
37291;BME280;23175;-33.706;151.094;2023-01-16T07:39:10;100311.41;;;22.06;45.19
37291;BME280;23175;-33.706;151.094;2023-01-16T07:41:39;100317.69;;;20.03;46.74
37291;BME280;23175;-33.706;151.094;2023-01-16T07:44:09;100318.27;;;21.45;44.99
37291;BME280;23175;-33.706;151.094;2023-01-16T07:46:38;100318.54;;;23.77;41.93
37291;BME280;23175;-33.706;151.094;2023-01-16T07:49:07;100324.99;;;21.99;43.92
37291;BME280;23175;-33.706;151.094;2023-01-16T07:51:36;100329.14;;;20.41;45.96
37291;BME280;23175;-33.706;151.094;2023-01-16T07:54:05;100325.12;;;22.38;42.87
37291;BME280;23175;-33.706;151.094;2023-01-16T07:56:34;100332.48;;;20.09;45.83
37291;BME280;23175;-33.706;151.094;2023-01-16T07:59:03;100334.28;;;20.79;46.15
37291;BME280;23175;-33.706;151.094;2023-01-16T08:01:33;100330.77;;;22.06;44.35
37291;BME280;23175;-33.706;151.094;2023-01-16T08:04:03;100331.68;;;22.20;43.39
37291;BME280;23175;-33.706;151.094;2023-01-16T08:06:32;100336.06;;;21.51;45.52
37291;BME280;23175;-33.706;151.094;2023-01-16T08:09:01;100339.89;;;21.45;44.80
37291;BME280;23175;-33.706;151.094;2023-01-16T08:11:30;100341.00;;;21.08;46.00
37291;BME280;23175;-33.706;151.094;2023-01-16T08:13:59;100345.69;;;20.79;44.91
37291;BME280;23175;-33.706;151.094;2023-01-16T08:16:29;100349.45;;;21.72;43.87
37291;BME280;23175;-33.706;151.094;2023-01-16T08:19:03;100347.47;;;21.72;42.65
37291;BME280;23175;-33.706;151.094;2023-01-16T08:21:32;100350.64;;;20.23;44.96
37291;BME280;23175;-33.706;151.094;2023-01-16T08:24:01;100350.97;;;22.22;42.15
37291;BME280;23175;-33.706;151.094;2023-01-16T08:26:30;100360.75;;;22.32;42.81
37291;BME280;23175;-33.706;151.094;2023-01-16T08:28:59;100363.40;;;20.83;44.42
37291;BME280;23175;-33.706;151.094;2023-01-16T08:31:28;100367.86;;;22.03;43.29
37291;BME280;23175;-33.706;151.094;2023-01-16T08:33:57;100367.27;;;23.58;40.91
37291;BME280;23175;-33.706;151.094;2023-01-16T08:36:26;100373.68;;;19.99;46.09
37291;BME280;23175;-33.706;151.094;2023-01-16T08:38:55;100375.61;;;20.82;44.14
37291;BME280;23175;-33.706;151.094;2023-01-16T08:41:25;100376.90;;;21.87;43.14
37291;BME280;23175;-33.706;151.094;2023-01-16T08:43:54;100386.08;;;22.89;42.16
37291;BME280;23175;-33.706;151.094;2023-01-16T08:53:01;100385.85;;;21.37;44.32
37291;BME280;23175;-33.706;151.094;2023-01-16T08:55:30;100390.02;;;21.76;45.35
37291;BME280;23175;-33.706;151.094;2023-01-16T08:57:59;100394.45;;;21.24;45.59
37291;BME280;23175;-33.706;151.094;2023-01-16T09:00:29;100392.47;;;21.74;45.23
37291;BME280;23175;-33.706;151.094;2023-01-16T09:02:59;100393.40;;;21.01;46.59
37291;BME280;23175;-33.706;151.094;2023-01-16T09:05:28;100392.14;;;20.12;47.98
37291;BME280;23175;-33.706;151.094;2023-01-16T09:07:58;100391.03;;;21.78;44.35
37291;BME280;23175;-33.706;151.094;2023-01-16T09:10:27;100396.42;;;22.58;44.50
37291;BME280;23175;-33.706;151.094;2023-01-16T09:12:56;100395.75;;;21.72;44.75
37291;BME280;23175;-33.706;151.094;2023-01-16T09:15:25;100398.98;;;21.88;45.98
37291;BME280;23175;-33.706;151.094;2023-01-16T09:17:55;100401.02;;;23.55;43.47
37291;BME280;23175;-33.706;151.094;2023-01-16T09:20:24;100405.15;;;21.25;45.79
37291;BME280;23175;-33.706;151.094;2023-01-16T09:22:58;100405.09;;;23.08;43.39
37291;BME280;23175;-33.706;151.094;2023-01-16T09:25:28;100408.41;;;22.09;45.02
37291;BME280;23175;-33.706;151.094;2023-01-16T09:27:58;100407.38;;;22.65;44.25
37291;BME280;23175;-33.706;151.094;2023-01-16T09:30:28;100403.34;;;22.40;44.40
37291;BME280;23175;-33.706;151.094;2023-01-16T09:32:58;100402.62;;;21.20;45.22
37291;BME280;23175;-33.706;151.094;2023-01-16T09:35:27;100402.00;;;24.13;42.29
37291;BME280;23175;-33.706;151.094;2023-01-16T09:37:56;100404.84;;;19.97;47.86
37291;BME280;23175;-33.706;151.094;2023-01-16T09:40:25;100405.27;;;21.53;45.65
37291;BME280;23175;-33.706;151.094;2023-01-16T09:43:04;100407.84;;;22.83;44.21
37291;BME280;23175;-33.706;151.094;2023-01-16T09:45:38;100411.83;;;22.57;44.56
37291;BME280;23175;-33.706;151.094;2023-01-16T09:48:14;100415.73;;;20.13;48.24
37291;BME280;23175;-33.706;151.094;2023-01-16T09:50:48;100411.36;;;23.09;43.66
37291;BME280;23175;-33.706;151.094;2023-01-16T09:53:26;100417.93;;;21.10;46.99
37291;BME280;23175;-33.706;151.094;2023-01-16T09:56:02;100415.98;;;20.28;47.78
37291;BME280;23175;-33.706;151.094;2023-01-16T09:58:31;100412.65;;;23.75;42.78
37291;BME280;23175;-33.706;151.094;2023-01-16T10:01:01;100415.74;;;23.46;42.72
37291;BME280;23175;-33.706;151.094;2023-01-16T10:03:30;100416.20;;;23.55;42.97
37291;BME280;23175;-33.706;151.094;2023-01-16T10:06:08;100420.59;;;20.89;46.54
37291;BME280;23175;-33.706;151.094;2023-01-16T10:08:48;100418.92;;;23.00;43.89
37291;BME280;23175;-33.706;151.094;2023-01-16T10:11:26;100417.90;;;21.99;46.83
37291;BME280;23175;-33.706;151.094;2023-01-16T10:14:38;100412.61;;;22.19;44.94
37291;BME280;23175;-33.706;151.094;2023-01-16T10:17:18;100414.67;;;20.91;47.32
37291;BME280;23175;-33.706;151.094;2023-01-16T10:20:01;100425.60;;;21.30;47.18
37291;BME280;23175;-33.706;151.094;2023-01-16T10:22:46;100431.19;;;21.89;46.75
37291;BME280;23175;-33.706;151.094;2023-01-16T10:25:21;100431.22;;;22.29;45.98
37291;BME280;23175;-33.706;151.094;2023-01-16T10:27:59;100435.80;;;20.56;48.24
37291;BME280;23175;-33.706;151.094;2023-01-16T10:30:35;100442.65;;;21.98;46.19
37291;BME280;23175;-33.706;151.094;2023-01-16T10:33:10;100447.49;;;23.88;43.57
37291;BME280;23175;-33.706;151.094;2023-01-16T10:35:44;100451.54;;;23.45;43.92
37291;BME280;23175;-33.706;151.094;2023-01-16T10:38:22;100457.86;;;24.14;42.62
37291;BME280;23175;-33.706;151.094;2023-01-16T10:40:54;100462.86;;;23.38;43.23
37291;BME280;23175;-33.706;151.094;2023-01-16T10:43:32;100463.99;;;23.73;42.71
37291;BME280;23175;-33.706;151.094;2023-01-16T10:46:13;100471.80;;;23.10;43.67
37291;BME280;23175;-33.706;151.094;2023-01-16T10:48:44;100468.63;;;23.39;43.05
37291;BME280;23175;-33.706;151.094;2023-01-16T10:51:13;100464.38;;;23.91;42.02
37291;BME280;23175;-33.706;151.094;2023-01-16T10:53:43;100465.83;;;22.37;44.92
37291;BME280;23175;-33.706;151.094;2023-01-16T10:56:13;100465.18;;;22.81;44.04
37291;BME280;23175;-33.706;151.094;2023-01-16T10:58:42;100469.02;;;23.33;43.48
37291;BME280;23175;-33.706;151.094;2023-01-16T11:01:14;100464.66;;;20.25;47.03
37291;BME280;23175;-33.706;151.094;2023-01-16T11:03:47;100466.25;;;22.05;45.27
37291;BME280;23175;-33.706;151.094;2023-01-16T11:06:20;100465.99;;;21.96;45.39
37291;BME280;23175;-33.706;151.094;2023-01-16T11:08:54;100460.90;;;22.27;44.78
37291;BME280;23175;-33.706;151.094;2023-01-16T11:11:23;100467.07;;;23.36;43.87
37291;BME280;23175;-33.706;151.094;2023-01-16T11:13:53;100468.26;;;22.67;43.99
37291;BME280;23175;-33.706;151.094;2023-01-16T11:16:28;100470.89;;;24.03;42.01
37291;BME280;23175;-33.706;151.094;2023-01-16T11:18:57;100471.07;;;22.97;43.21
37291;BME280;23175;-33.706;151.094;2023-01-16T11:21:30;100473.35;;;21.98;44.37
37291;BME280;23175;-33.706;151.094;2023-01-16T11:24:04;100470.45;;;23.06;42.51
37291;BME280;23175;-33.706;151.094;2023-01-16T11:26:39;100471.28;;;22.21;44.24
37291;BME280;23175;-33.706;151.094;2023-01-16T11:29:14;100466.32;;;23.06;42.97
37291;BME280;23175;-33.706;151.094;2023-01-16T11:31:48;100461.22;;;23.61;42.59
37291;BME280;23175;-33.706;151.094;2023-01-16T11:34:19;100461.17;;;24.53;41.23
37291;BME280;23175;-33.706;151.094;2023-01-16T11:36:49;100465.15;;;24.47;41.17
37291;BME280;23175;-33.706;151.094;2023-01-16T11:39:21;100463.67;;;24.56;40.57
37291;BME280;23175;-33.706;151.094;2023-01-16T11:41:54;100461.39;;;24.49;40.71
37291;BME280;23175;-33.706;151.094;2023-01-16T11:44:28;100450.97;;;23.16;42.10
37291;BME280;23175;-33.706;151.094;2023-01-16T11:47:00;100445.10;;;23.55;41.83
37291;BME280;23175;-33.706;151.094;2023-01-16T11:49:35;100449.71;;;22.99;42.85
37291;BME280;23175;-33.706;151.094;2023-01-16T11:52:05;100443.76;;;23.92;40.85
37291;BME280;23175;-33.706;151.094;2023-01-16T11:54:35;100438.07;;;23.16;42.30
37291;BME280;23175;-33.706;151.094;2023-01-16T11:57:15;100439.26;;;22.31;43.43
37291;BME280;23175;-33.706;151.094;2023-01-16T12:00:35;100431.84;;;23.89;41.58
37291;BME280;23175;-33.706;151.094;2023-01-16T12:03:45;100432.13;;;22.86;42.79
37291;BME280;23175;-33.706;151.094;2023-01-16T12:06:39;100426.17;;;23.86;41.68
37291;BME280;23175;-33.706;151.094;2023-01-16T12:09:43;100421.97;;;24.26;42.07
37291;BME280;23175;-33.706;151.094;2023-01-16T12:12:27;100407.71;;;23.50;42.22
37291;BME280;23175;-33.706;151.094;2023-01-16T12:15:04;100401.41;;;21.22;45.33
37291;BME280;23175;-33.706;151.094;2023-01-16T12:17:44;100402.06;;;20.66;45.62
37291;BME280;23175;-33.706;151.094;2023-01-16T12:20:24;100403.88;;;21.63;44.61
37291;BME280;23175;-33.706;151.094;2023-01-16T12:23:08;100399.16;;;22.17;44.48
37291;BME280;23175;-33.706;151.094;2023-01-16T12:25:46;100397.76;;;21.59;45.40
37291;BME280;23175;-33.706;151.094;2023-01-16T12:28:29;100401.20;;;22.56;43.58
37291;BME280;23175;-33.706;151.094;2023-01-16T12:31:12;100411.18;;;21.26;45.17
37291;BME280;23175;-33.706;151.094;2023-01-16T12:33:52;100407.63;;;22.32;44.62
37291;BME280;23175;-33.706;151.094;2023-01-16T12:36:33;100405.56;;;22.50;44.14
37291;BME280;23175;-33.706;151.094;2023-01-16T12:39:14;100412.21;;;22.36;43.82
37291;BME280;23175;-33.706;151.094;2023-01-16T12:41:56;100411.79;;;21.17;45.64
37291;BME280;23175;-33.706;151.094;2023-01-16T12:44:41;100413.93;;;21.70;44.75
37291;BME280;23175;-33.706;151.094;2023-01-16T12:47:30;100417.26;;;22.13;44.93
37291;BME280;23175;-33.706;151.094;2023-01-16T12:50:09;100419.79;;;22.64;42.95
37291;BME280;23175;-33.706;151.094;2023-01-16T12:52:56;100422.35;;;21.86;44.22
37291;BME280;23175;-33.706;151.094;2023-01-16T12:55:37;100424.47;;;23.08;43.45
37291;BME280;23175;-33.706;151.094;2023-01-16T12:58:13;100420.05;;;23.81;41.55
37291;BME280;23175;-33.706;151.094;2023-01-16T13:00:47;100418.92;;;24.69;41.15